sensor_id;sensor_type;location;lat;lon;timestamp;pressure;altitude;pressure_sealevel;temperature;humidity
2681;BME280;1350;42.134;24.708;2023-03-07T00:01:23;98793.88;;;6.67;100.00
2681;BME280;1350;42.134;24.708;2023-03-07T00:03:50;98799.69;;;6.74;100.00
2681;BME280;1350;42.134;24.708;2023-03-07T00:06:18;98790.44;;;6.48;100.00
2681;BME280;1350;42.134;24.708;2023-03-07T00:08:48;98789.38;;;6.69;100.00
2681;BME280;1350;42.134;24.708;2023-03-07T00:11:15;98804.19;;;6.55;100.00
2681;BME280;1350;42.134;24.708;2023-03-07T00:13:41;98789.09;;;6.40;100.00
2681;BME280;1350;42.134;24.708;2023-03-07T00:16:11;98790.09;;;6.37;100.00
2681;BME280;1350;42.134;24.708;2023-03-07T00:18:39;98790.53;;;6.47;100.00
2681;BME280;1350;42.134;24.708;2023-03-07T00:21:07;98788.13;;;6.42;100.00
2681;BME280;1350;42.134;24.708;2023-03-07T00:23:37;98796.56;;;6.13;100.00
2681;BME280;1350;42.134;24.708;2023-03-07T00:26:07;98782.00;;;6.23;100.00
2681;BME280;1350;42.134;24.708;2023-03-07T00:28:34;98797.44;;;6.12;100.00
2681;BME280;1350;42.134;24.708;2023-03-07T00:31:03;98790.34;;;6.14;100.00
2681;BME280;1350;42.134;24.708;2023-03-07T00:33:30;98779.31;;;6.25;100.00
2681;BME280;1350;42.134;24.708;2023-03-07T00:35:58;98784.44;;;6.28;100.00
2681;BME280;1350;42.134;24.708;2023-03-07T00:38:27;98785.66;;;6.21;100.00
2681;BME280;1350;42.134;24.708;2023-03-07T00:41:00;98778.53;;;6.23;100.00
2681;BME280;1350;42.134;24.708;2023-03-07T00:43:28;98777.03;;;6.36;100.00
2681;BME280;1350;42.134;24.708;2023-03-07T00:45:54;98765.09;;;6.46;100.00
2681;BME280;1350;42.134;24.708;2023-03-07T00:48:22;98762.91;;;6.37;100.00
2681;BME280;1350;42.134;24.708;2023-03-07T00:50:49;98760.88;;;6.25;100.00
2681;BME280;1350;42.134;24.708;2023-03-07T00:53:16;98751.47;;;6.02;100.00
2681;BME280;1350;42.134;24.708;2023-03-07T00:55:52;98757.63;;;6.01;100.00
2681;BME280;1350;42.134;24.708;2023-03-07T00:58:20;98752.34;;;6.20;100.00
2681;BME280;1350;42.134;24.708;2023-03-07T01:00:47;98748.03;;;6.19;100.00
2681;BME280;1350;42.134;24.708;2023-03-07T01:03:14;98735.34;;;6.27;100.00
2681;BME280;1350;42.134;24.708;2023-03-07T01:05:41;98745.16;;;6.23;100.00
2681;BME280;1350;42.134;24.708;2023-03-07T01:08:07;98745.97;;;6.25;100.00
2681;BME280;1350;42.134;24.708;2023-03-07T01:10:34;98747.50;;;6.29;100.00
2681;BME280;1350;42.134;24.708;2023-03-07T01:13:01;98742.16;;;6.31;100.00
2681;BME280;1350;42.134;24.708;2023-03-07T01:15:29;98743.66;;;6.36;100.00
2681;BME280;1350;42.134;24.708;2023-03-07T01:17:56;98729.31;;;6.25;100.00
2681;BME280;1350;42.134;24.708;2023-03-07T01:20:23;98737.91;;;6.28;100.00
2681;BME280;1350;42.134;24.708;2023-03-07T01:22:49;98732.88;;;6.24;100.00
2681;BME280;1350;42.134;24.708;2023-03-07T01:25:16;98734.09;;;6.17;100.00
2681;BME280;1350;42.134;24.708;2023-03-07T01:27:43;98728.91;;;6.15;100.00
2681;BME280;1350;42.134;24.708;2023-03-07T01:30:10;98737.94;;;5.73;100.00
2681;BME280;1350;42.134;24.708;2023-03-07T01:32:38;98743.59;;;5.84;100.00
2681;BME280;1350;42.134;24.708;2023-03-07T01:35:06;98742.97;;;5.77;100.00
2681;BME280;1350;42.134;24.708;2023-03-07T01:37:32;98735.22;;;5.74;100.00
2681;BME280;1350;42.134;24.708;2023-03-07T01:39:59;98747.13;;;5.64;100.00
2681;BME280;1350;42.134;24.708;2023-03-07T01:42:28;98753.84;;;5.51;100.00
2681;BME280;1350;42.134;24.708;2023-03-07T01:45:02;98751.19;;;5.33;100.00
2681;BME280;1350;42.134;24.708;2023-03-07T01:47:29;98760.53;;;5.40;100.00
2681;BME280;1350;42.134;24.708;2023-03-07T01:49:58;98754.88;;;5.29;100.00
2681;BME280;1350;42.134;24.708;2023-03-07T01:52:30;98748.91;;;5.25;100.00
2681;BME280;1350;42.134;24.708;2023-03-07T01:55:00;98755.03;;;5.05;100.00
2681;BME280;1350;42.134;24.708;2023-03-07T01:57:31;98752.06;;;5.13;100.00
2681;BME280;1350;42.134;24.708;2023-03-07T02:00:02;98750.47;;;5.09;100.00
2681;BME280;1350;42.134;24.708;2023-03-07T02:02:34;98743.47;;;5.09;100.00
2681;BME280;1350;42.134;24.708;2023-03-07T02:05:06;98745.69;;;5.18;100.00
2681;BME280;1350;42.134;24.708;2023-03-07T02:07:40;98744.91;;;5.16;100.00
2681;BME280;1350;42.134;24.708;2023-03-07T02:10:10;98749.31;;;4.96;100.00
2681;BME280;1350;42.134;24.708;2023-03-07T02:12:38;98741.38;;;4.97;100.00
2681;BME280;1350;42.134;24.708;2023-03-07T02:15:08;98744.31;;;5.10;100.00
2681;BME280;1350;42.134;24.708;2023-03-07T02:17:35;98738.16;;;5.11;100.00
2681;BME280;1350;42.134;24.708;2023-03-07T02:20:14;98738.66;;;5.19;100.00
2681;BME280;1350;42.134;24.708;2023-03-07T02:22:47;98734.66;;;5.10;100.00
2681;BME280;1350;42.134;24.708;2023-03-07T02:25:17;98743.44;;;5.30;100.00
2681;BME280;1350;42.134;24.708;2023-03-07T02:27:47;98742.16;;;5.19;100.00
2681;BME280;1350;42.134;24.708;2023-03-07T02:30:15;98732.09;;;5.09;100.00
2681;BME280;1350;42.134;24.708;2023-03-07T02:32:42;98735.44;;;5.12;100.00
2681;BME280;1350;42.134;24.708;2023-03-07T02:35:13;98738.72;;;5.17;100.00
2681;BME280;1350;42.134;24.708;2023-03-07T02:37:42;98736.09;;;5.17;100.00
2681;BME280;1350;42.134;24.708;2023-03-07T02:40:11;98734.28;;;5.19;100.00
2681;BME280;1350;42.134;24.708;2023-03-07T02:42:42;98737.56;;;5.04;100.00
2681;BME280;1350;42.134;24.708;2023-03-07T02:45:13;98745.47;;;5.23;100.00
2681;BME280;1350;42.134;24.708;2023-03-07T02:47:41;98742.50;;;5.31;100.00
2681;BME280;1350;42.134;24.708;2023-03-07T02:50:10;98738.41;;;5.05;100.00
2681;BME280;1350;42.134;24.708;2023-03-07T02:52:37;98739.91;;;5.10;100.00
2681;BME280;1350;42.134;24.708;2023-03-07T02:55:05;98732.75;;;5.14;100.00
2681;BME280;1350;42.134;24.708;2023-03-07T02:57:32;98733.63;;;5.14;100.00
2681;BME280;1350;42.134;24.708;2023-03-07T03:00:00;98739.25;;;5.26;100.00
2681;BME280;1350;42.134;24.708;2023-03-07T03:02:30;98739.47;;;5.01;100.00
2681;BME280;1350;42.134;24.708;2023-03-07T03:04:57;98735.19;;;5.18;100.00
2681;BME280;1350;42.134;24.708;2023-03-07T03:07:24;98726.75;;;4.92;100.00
2681;BME280;1350;42.134;24.708;2023-03-07T03:09:50;98736.66;;;5.05;100.00
2681;BME280;1350;42.134;24.708;2023-03-07T03:12:17;98732.09;;;5.09;100.00
2681;BME280;1350;42.134;24.708;2023-03-07T03:14:44;98738.72;;;5.17;100.00
2681;BME280;1350;42.134;24.708;2023-03-07T03:17:11;98743.00;;;5.00;100.00
2681;BME280;1350;42.134;24.708;2023-03-07T03:19:39;98745.50;;;4.83;100.00
2681;BME280;1350;42.134;24.708;2023-03-07T03:22:05;98728.38;;;4.94;100.00
2681;BME280;1350;42.134;24.708;2023-03-07T03:24:32;98729.53;;;5.07;100.00
2681;BME280;1350;42.134;24.708;2023-03-07T03:26:59;98730.53;;;4.85;100.00
2681;BME280;1350;42.134;24.708;2023-03-07T03:29:25;98726.16;;;4.85;100.00
2681;BME280;1350;42.134;24.708;2023-03-07T03:31:52;98737.69;;;4.81;100.00
2681;BME280;1350;42.134;24.708;2023-03-07T03:34:19;98746.56;;;4.79;100.00
2681;BME280;1350;42.134;24.708;2023-03-07T03:36:47;98737.44;;;4.87;100.00
2681;BME280;1350;42.134;24.708;2023-03-07T03:39:14;98739.34;;;4.84;100.00
2681;BME280;1350;42.134;24.708;2023-03-07T03:41:40;98743.75;;;4.83;100.00
2681;BME280;1350;42.134;24.708;2023-03-07T03:44:07;98737.97;;;4.95;100.00
2681;BME280;1350;42.134;24.708;2023-03-07T03:46:34;98746.38;;;4.83;100.00
2681;BME280;1350;42.134;24.708;2023-03-07T03:49:01;98737.31;;;4.90;100.00
2681;BME280;1350;42.134;24.708;2023-03-07T03:51:29;98742.69;;;4.87;100.00
2681;BME280;1350;42.134;24.708;2023-03-07T03:53:57;98739.41;;;4.82;100.00
2681;BME280;1350;42.134;24.708;2023-03-07T03:56:24;98731.41;;;5.05;100.00
2681;BME280;1350;42.134;24.708;2023-03-07T03:58:53;98741.78;;;4.88;100.00
2681;BME280;1350;42.134;24.708;2023-03-07T04:01:22;98739.41;;;5.02;100.00
2681;BME280;1350;42.134;24.708;2023-03-07T04:03:50;98753.38;;;4.83;100.00
2681;BME280;1350;42.134;24.708;2023-03-07T04:06:19;98742.13;;;4.81;100.00
2681;BME280;1350;42.134;24.708;2023-03-07T04:08:46;98749.00;;;4.83;100.00
2681;BME280;1350;42.134;24.708;2023-03-07T04:11:14;98747.22;;;4.84;100.00
2681;BME280;1350;42.134;24.708;2023-03-07T04:13:41;98760.22;;;4.87;100.00
2681;BME280;1350;42.134;24.708;2023-03-07T04:16:08;98753.66;;;4.97;100.00
2681;BME280;1350;42.134;24.708;2023-03-07T04:18:35;98760.28;;;4.85;100.00
2681;BME280;1350;42.134;24.708;2023-03-07T04:21:02;98757.13;;;4.97;100.00
2681;BME280;1350;42.134;24.708;2023-03-07T04:23:30;98762.84;;;4.87;100.00
2681;BME280;1350;42.134;24.708;2023-03-07T04:25:59;98762.25;;;4.80;100.00
2681;BME280;1350;42.134;24.708;2023-03-07T04:28:29;98766.56;;;4.81;100.00
2681;BME280;1350;42.134;24.708;2023-03-07T04:31:07;98759.22;;;4.89;100.00
2681;BME280;1350;42.134;24.708;2023-03-07T04:33:34;98750.75;;;5.03;100.00
2681;BME280;1350;42.134;24.708;2023-03-07T04:36:00;98752.06;;;5.13;100.00
2681;BME280;1350;42.134;24.708;2023-03-07T04:38:27;98752.94;;;5.13;100.00
2681;BME280;1350;42.134;24.708;2023-03-07T04:40:54;98753.25;;;5.06;100.00
2681;BME280;1350;42.134;24.708;2023-03-07T04:43:21;98761.38;;;5.20;100.00
2681;BME280;1350;42.134;24.708;2023-03-07T04:45:49;98756.81;;;5.44;100.00
2681;BME280;1350;42.134;24.708;2023-03-07T04:48:17;98768.56;;;5.74;100.00
2681;BME280;1350;42.134;24.708;2023-03-07T04:50:46;98777.66;;;5.67;100.00
2681;BME280;1350;42.134;24.708;2023-03-07T04:53:16;98773.34;;;6.03;100.00
2681;BME280;1350;42.134;24.708;2023-03-07T04:55:43;98776.97;;;6.19;100.00
2681;BME280;1350;42.134;24.708;2023-03-07T04:58:10;98777.34;;;6.11;100.00
2681;BME280;1350;42.134;24.708;2023-03-07T05:00:38;98765.06;;;6.29;100.00
2681;BME280;1350;42.134;24.708;2023-03-07T05:03:07;98768.09;;;6.03;100.00
2681;BME280;1350;42.134;24.708;2023-03-07T05:05:34;98754.16;;;6.19;100.00
2681;BME280;1350;42.134;24.708;2023-03-07T05:08:01;98765.22;;;6.26;100.00
2681;BME280;1350;42.134;24.708;2023-03-07T05:10:28;98769.50;;;6.28;100.00
2681;BME280;1350;42.134;24.708;2023-03-07T05:12:55;98770.28;;;6.47;100.00
2681;BME280;1350;42.134;24.708;2023-03-07T05:15:22;98775.75;;;6.78;100.00
2681;BME280;1350;42.134;24.708;2023-03-07T05:17:48;98771.44;;;6.95;100.00
2681;BME280;1350;42.134;24.708;2023-03-07T05:20:17;98763.75;;;7.07;100.00
2681;BME280;1350;42.134;24.708;2023-03-07T05:22:44;98766.63;;;7.03;100.00
2681;BME280;1350;42.134;24.708;2023-03-07T05:25:11;98768.31;;;6.86;100.00
2681;BME280;1350;42.134;24.708;2023-03-07T05:27:37;98765.31;;;6.94;100.00
2681;BME280;1350;42.134;24.708;2023-03-07T05:30:05;98768.72;;;7.13;100.00
2681;BME280;1350;42.134;24.708;2023-03-07T05:32:32;98771.44;;;7.12;100.00
2681;BME280;1350;42.134;24.708;2023-03-07T05:34:59;98769.19;;;7.37;100.00
2681;BME280;1350;42.134;24.708;2023-03-07T05:37:27;98784.09;;;7.55;100.00
2681;BME280;1350;42.134;24.708;2023-03-07T05:39:54;98793.97;;;7.67;100.00
2681;BME280;1350;42.134;24.708;2023-03-07T05:42:21;98799.00;;;7.71;100.00
2681;BME280;1350;42.134;24.708;2023-03-07T05:44:47;98805.00;;;8.06;100.00
2681;BME280;1350;42.134;24.708;2023-03-07T05:47:14;98794.63;;;8.18;100.00
2681;BME280;1350;42.134;24.708;2023-03-07T05:49:41;98792.09;;;8.48;100.00
2681;BME280;1350;42.134;24.708;2023-03-07T05:52:08;98801.28;;;8.56;100.00
2681;BME280;1350;42.134;24.708;2023-03-07T05:54:36;98793.31;;;8.27;100.00
2681;BME280;1350;42.134;24.708;2023-03-07T05:57:02;98793.31;;;8.27;100.00
2681;BME280;1350;42.134;24.708;2023-03-07T05:59:29;98795.44;;;8.51;100.00
2681;BME280;1350;42.134;24.708;2023-03-07T06:01:56;98800.44;;;8.72;100.00
2681;BME280;1350;42.134;24.708;2023-03-07T06:04:23;98804.50;;;8.77;100.00
2681;BME280;1350;42.134;24.708;2023-03-07T06:06:49;98805.34;;;8.93;100.00
2681;BME280;1350;42.134;24.708;2023-03-07T06:09:16;98802.28;;;9.15;100.00
2681;BME280;1350;42.134;24.708;2023-03-07T06:11:44;98795.09;;;9.17;98.88
2681;BME280;1350;42.134;24.708;2023-03-07T06:14:11;98803.19;;;9.43;98.51
2681;BME280;1350;42.134;24.708;2023-03-07T06:16:38;98802.69;;;9.37;96.68
2681;BME280;1350;42.134;24.708;2023-03-07T06:19:04;98795.81;;;9.34;98.51
2681;BME280;1350;42.134;24.708;2023-03-07T06:21:31;98807.50;;;9.16;96.78
2681;BME280;1350;42.134;24.708;2023-03-07T06:23:58;98800.97;;;8.92;98.62
2681;BME280;1350;42.134;24.708;2023-03-07T06:26:24;98807.94;;;9.23;97.85
2681;BME280;1350;42.134;24.708;2023-03-07T06:28:52;98808.00;;;9.51;96.27
2681;BME280;1350;42.134;24.708;2023-03-07T06:31:20;98806.22;;;9.93;94.19
2681;BME280;1350;42.134;24.708;2023-03-07T06:33:47;98801.09;;;10.73;90.49
2681;BME280;1350;42.134;24.708;2023-03-07T06:36:15;98796.94;;;11.60;84.00
2681;BME280;1350;42.134;24.708;2023-03-07T06:38:42;98807.94;;;12.42;78.64
2681;BME280;1350;42.134;24.708;2023-03-07T06:41:10;98815.56;;;13.29;73.06
2681;BME280;1350;42.134;24.708;2023-03-07T06:43:36;98816.91;;;14.03;68.29
2681;BME280;1350;42.134;24.708;2023-03-07T06:46:05;98816.91;;;14.69;64.12
2681;BME280;1350;42.134;24.708;2023-03-07T06:48:32;98819.78;;;14.77;61.78
2681;BME280;1350;42.134;24.708;2023-03-07T06:50:59;98820.72;;;15.30;59.74
2681;BME280;1350;42.134;24.708;2023-03-07T06:53:31;98813.72;;;15.90;57.93
2681;BME280;1350;42.134;24.708;2023-03-07T06:55:57;98815.16;;;16.54;56.89
2681;BME280;1350;42.134;24.708;2023-03-07T06:58:24;98806.56;;;17.48;54.96
2681;BME280;1350;42.134;24.708;2023-03-07T07:00:51;98806.03;;;18.09;52.32
2681;BME280;1350;42.134;24.708;2023-03-07T07:03:19;98808.91;;;18.35;50.62
2681;BME280;1350;42.134;24.708;2023-03-07T07:05:46;98807.28;;;18.52;50.07
2681;BME280;1350;42.134;24.708;2023-03-07T07:08:13;98805.78;;;18.94;49.08
2681;BME280;1350;42.134;24.708;2023-03-07T07:10:39;98810.31;;;18.93;48.39
2681;BME280;1350;42.134;24.708;2023-03-07T07:13:06;98810.50;;;19.09;47.69
2681;BME280;1350;42.134;24.708;2023-03-07T07:15:33;98805.44;;;19.24;46.77
2681;BME280;1350;42.134;24.708;2023-03-07T07:18:00;98800.91;;;19.59;46.86
2681;BME280;1350;42.134;24.708;2023-03-07T07:20:28;98801.63;;;19.44;46.47
2681;BME280;1350;42.134;24.708;2023-03-07T07:22:55;98804.63;;;19.41;46.12
2681;BME280;1350;42.134;24.708;2023-03-07T07:25:22;98808.00;;;19.43;46.00
2681;BME280;1350;42.134;24.708;2023-03-07T07:27:49;98809.75;;;19.95;45.10
2681;BME280;1350;42.134;24.708;2023-03-07T07:30:16;98806.56;;;20.43;44.68
2681;BME280;1350;42.134;24.708;2023-03-07T07:32:43;98800.84;;;20.87;45.64
2681;BME280;1350;42.134;24.708;2023-03-07T07:35:10;98803.66;;;21.19;43.53
2681;BME280;1350;42.134;24.708;2023-03-07T07:37:38;98803.63;;;21.11;43.40
2681;BME280;1350;42.134;24.708;2023-03-07T07:40:06;98810.94;;;21.51;42.95
2681;BME280;1350;42.134;24.708;2023-03-07T07:42:34;98817.84;;;21.45;42.49
2681;BME280;1350;42.134;24.708;2023-03-07T07:45:01;98806.56;;;21.66;42.79
2681;BME280;1350;42.134;24.708;2023-03-07T07:47:28;98805.63;;;22.46;43.36
2681;BME280;1350;42.134;24.708;2023-03-07T07:49:54;98802.66;;;22.17;44.61
2681;BME280;1350;42.134;24.708;2023-03-07T07:52:21;98809.91;;;21.36;47.38
2681;BME280;1350;42.134;24.708;2023-03-07T07:54:50;98803.72;;;20.94;46.41
2681;BME280;1350;42.134;24.708;2023-03-07T07:57:17;98808.00;;;21.04;45.74
2681;BME280;1350;42.134;24.708;2023-03-07T07:59:43;98809.78;;;21.94;45.11
2681;BME280;1350;42.134;24.708;2023-03-07T08:02:11;98800.31;;;21.90;44.73
2681;BME280;1350;42.134;24.708;2023-03-07T08:04:38;98800.47;;;22.04;43.79
2681;BME280;1350;42.134;24.708;2023-03-07T08:07:05;98799.84;;;21.78;43.82
2681;BME280;1350;42.134;24.708;2023-03-07T08:09:32;98801.00;;;21.67;45.82
2681;BME280;1350;42.134;24.708;2023-03-07T08:12:00;98798.06;;;22.25;44.05
2681;BME280;1350;42.134;24.708;2023-03-07T08:14:27;98795.94;;;21.56;46.71
2681;BME280;1350;42.134;24.708;2023-03-07T08:16:54;98801.47;;;21.47;45.45
2681;BME280;1350;42.134;24.708;2023-03-07T08:19:21;98784.84;;;21.76;48.26
2681;BME280;1350;42.134;24.708;2023-03-07T08:21:47;98787.44;;;22.16;45.19
2681;BME280;1350;42.134;24.708;2023-03-07T08:24:14;98787.16;;;21.87;45.07
2681;BME280;1350;42.134;24.708;2023-03-07T08:26:41;98785.66;;;22.00;47.13
2681;BME280;1350;42.134;24.708;2023-03-07T08:29:09;98789.88;;;21.87;44.48
2681;BME280;1350;42.134;24.708;2023-03-07T08:31:36;98792.56;;;21.38;46.00
2681;BME280;1350;42.134;24.708;2023-03-07T08:34:02;98800.31;;;21.33;45.40
2681;BME280;1350;42.134;24.708;2023-03-07T08:36:29;98791.22;;;21.83;48.03
2681;BME280;1350;42.134;24.708;2023-03-07T08:38:56;98788.13;;;22.10;46.58
2681;BME280;1350;42.134;24.708;2023-03-07T08:41:23;98785.44;;;22.10;47.18
2681;BME280;1350;42.134;24.708;2023-03-07T08:43:50;98791.53;;;22.12;44.65
2681;BME280;1350;42.134;24.708;2023-03-07T08:46:18;98791.06;;;22.00;45.63
2681;BME280;1350;42.134;24.708;2023-03-07T08:48:45;98780.25;;;21.84;47.57
2681;BME280;1350;42.134;24.708;2023-03-07T08:51:14;98781.31;;;22.38;45.30
2681;BME280;1350;42.134;24.708;2023-03-07T08:53:42;98781.78;;;22.57;44.45
2681;BME280;1350;42.134;24.708;2023-03-07T08:56:12;98784.56;;;22.25;45.35
2681;BME280;1350;42.134;24.708;2023-03-07T08:58:39;98777.22;;;22.03;46.22
2681;BME280;1350;42.134;24.708;2023-03-07T09:01:06;98773.13;;;22.23;45.48
2681;BME280;1350;42.134;24.708;2023-03-07T09:03:35;98776.41;;;22.41;46.07
2681;BME280;1350;42.134;24.708;2023-03-07T09:06:03;98774.94;;;22.77;45.36
2681;BME280;1350;42.134;24.708;2023-03-07T09:08:31;98781.97;;;22.48;43.55
2681;BME280;1350;42.134;24.708;2023-03-07T09:10:58;98771.47;;;22.61;44.28
2681;BME280;1350;42.134;24.708;2023-03-07T09:13:25;98771.66;;;22.90;43.47
2681;BME280;1350;42.134;24.708;2023-03-07T09:15:52;98767.72;;;23.00;43.84
2681;BME280;1350;42.134;24.708;2023-03-07T09:18:19;98762.00;;;23.49;43.59
2681;BME280;1350;42.134;24.708;2023-03-07T09:20:48;98763.88;;;23.85;42.65
2681;BME280;1350;42.134;24.708;2023-03-07T09:23:15;98762.56;;;23.81;40.91
2681;BME280;1350;42.134;24.708;2023-03-07T09:25:50;98768.56;;;23.01;41.82
2681;BME280;1350;42.134;24.708;2023-03-07T09:28:17;98767.53;;;23.02;41.20
2681;BME280;1350;42.134;24.708;2023-03-07T09:30:53;98770.97;;;22.57;42.35
2681;BME280;1350;42.134;24.708;2023-03-07T09:33:20;98753.91;;;22.95;43.24
2681;BME280;1350;42.134;24.708;2023-03-07T09:35:48;98754.81;;;22.41;42.31
2681;BME280;1350;42.134;24.708;2023-03-07T09:38:14;98752.34;;;22.16;43.42
2681;BME280;1350;42.134;24.708;2023-03-07T09:40:44;98753.59;;;22.52;42.37
2681;BME280;1350;42.134;24.708;2023-03-07T09:43:17;98750.75;;;23.06;41.79
2681;BME280;1350;42.134;24.708;2023-03-07T09:45:58;98755.09;;;23.46;42.29
2681;BME280;1350;42.134;24.708;2023-03-07T09:48:56;98750.13;;;23.50;42.00
2681;BME280;1350;42.134;24.708;2023-03-07T09:51:35;98751.34;;;23.84;41.12
2681;BME280;1350;42.134;24.708;2023-03-07T09:54:05;98743.34;;;23.31;42.64
2681;BME280;1350;42.134;24.708;2023-03-07T09:56:37;98736.59;;;23.04;41.84
2681;BME280;1350;42.134;24.708;2023-03-07T09:59:12;98740.38;;;23.26;41.24
2681;BME280;1350;42.134;24.708;2023-03-07T10:05:05;98730.25;;;23.80;40.42
2681;BME280;1350;42.134;24.708;2023-03-07T10:07:39;98725.03;;;23.78;41.02
2681;BME280;1350;42.134;24.708;2023-03-07T10:10:30;98715.78;;;23.05;40.79
2681;BME280;1350;42.134;24.708;2023-03-07T10:13:27;98721.13;;;22.68;40.26
2681;BME280;1350;42.134;24.708;2023-03-07T10:16:20;98718.94;;;22.94;39.55
2681;BME280;1350;42.134;24.708;2023-03-07T10:19:12;98713.94;;;23.28;39.09
2681;BME280;1350;42.134;24.708;2023-03-07T10:22:18;98706.88;;;23.79;39.83
2681;BME280;1350;42.134;24.708;2023-03-07T10:25:18;98697.50;;;23.89;38.88
2681;BME280;1350;42.134;24.708;2023-03-07T10:27:51;98705.22;;;23.41;38.86
2681;BME280;1350;42.134;24.708;2023-03-07T10:30:20;98696.88;;;22.36;39.81
2681;BME280;1350;42.134;24.708;2023-03-07T10:32:50;98691.50;;;23.19;40.28
2681;BME280;1350;42.134;24.708;2023-03-07T10:35:20;98687.88;;;23.50;39.70
2681;BME280;1350;42.134;24.708;2023-03-07T10:37:50;98682.09;;;23.15;39.20
2681;BME280;1350;42.134;24.708;2023-03-07T10:40:23;98670.63;;;22.60;39.02
2681;BME280;1350;42.134;24.708;2023-03-07T10:42:51;98675.72;;;21.22;39.61
2681;BME280;1350;42.134;24.708;2023-03-07T10:45:19;98678.22;;;21.23;38.91
2681;BME280;1350;42.134;24.708;2023-03-07T10:47:45;98662.13;;;21.94;38.88
2681;BME280;1350;42.134;24.708;2023-03-07T10:50:21;98654.66;;;22.51;38.82
2681;BME280;1350;42.134;24.708;2023-03-07T10:52:52;98645.25;;;22.69;38.00
2681;BME280;1350;42.134;24.708;2023-03-07T10:55:37;98644.34;;;22.46;38.96
2681;BME280;1350;42.134;24.708;2023-03-07T10:58:20;98638.13;;;22.38;38.58
2681;BME280;1350;42.134;24.708;2023-03-07T11:01:02;98638.25;;;21.75;39.19
2681;BME280;1350;42.134;24.708;2023-03-07T11:03:39;98641.19;;;21.01;38.76
2681;BME280;1350;42.134;24.708;2023-03-07T11:06:24;98634.25;;;21.15;39.54
2681;BME280;1350;42.134;24.708;2023-03-07T11:09:33;98634.91;;;20.69;39.56
2681;BME280;1350;42.134;24.708;2023-03-07T11:12:12;98612.00;;;21.13;38.76
2681;BME280;1350;42.134;24.708;2023-03-07T11:14:45;98614.63;;;21.77;38.11
2681;BME280;1350;42.134;24.708;2023-03-07T11:17:18;98611.31;;;21.27;39.00
2681;BME280;1350;42.134;24.708;2023-03-07T11:19:46;98597.03;;;21.18;39.17
2681;BME280;1350;42.134;24.708;2023-03-07T11:22:20;98587.91;;;21.11;39.49
2681;BME280;1350;42.134;24.708;2023-03-07T11:24:56;98597.66;;;21.28;39.17
2681;BME280;1350;42.134;24.708;2023-03-07T11:27:32;98580.16;;;21.24;41.57
2681;BME280;1350;42.134;24.708;2023-03-07T11:30:17;98580.94;;;21.49;39.27
2681;BME280;1350;42.134;24.708;2023-03-07T11:33:07;98573.09;;;20.59;41.22
2681;BME280;1350;42.134;24.708;2023-03-07T11:36:03;98565.34;;;20.88;40.55
2681;BME280;1350;42.134;24.708;2023-03-07T11:38:43;98559.78;;;19.84;42.83
2681;BME280;1350;42.134;24.708;2023-03-07T11:41:19;98565.00;;;20.43;41.40
2681;BME280;1350;42.134;24.708;2023-03-07T11:43:59;98548.19;;;20.49;40.32
2681;BME280;1350;42.134;24.708;2023-03-07T11:46:37;98546.91;;;20.11;40.86
2681;BME280;1350;42.134;24.708;2023-03-07T11:49:20;98547.19;;;19.84;41.97
2681;BME280;1350;42.134;24.708;2023-03-07T11:52:01;98528.88;;;19.96;42.00
2681;BME280;1350;42.134;24.708;2023-03-07T11:54:36;98532.09;;;20.07;41.94
2681;BME280;1350;42.134;24.708;2023-03-07T11:57:13;98528.28;;;20.26;41.38
2681;BME280;1350;42.134;24.708;2023-03-07T12:00:00;98522.91;;;20.42;41.15
2681;BME280;1350;42.134;24.708;2023-03-07T12:02:44;98536.28;;;19.94;41.38
2681;BME280;1350;42.134;24.708;2023-03-07T12:05:23;98531.09;;;19.51;42.13
2681;BME280;1350;42.134;24.708;2023-03-07T12:08:17;98520.50;;;19.49;41.26
2681;BME280;1350;42.134;24.708;2023-03-07T12:10:59;98520.22;;;19.68;40.22
2681;BME280;1350;42.134;24.708;2023-03-07T12:13:37;98510.53;;;19.99;39.91
2681;BME280;1350;42.134;24.708;2023-03-07T12:16:16;98504.41;;;20.23;40.13
2681;BME280;1350;42.134;24.708;2023-03-07T12:19:04;98512.63;;;20.30;40.16
2681;BME280;1350;42.134;24.708;2023-03-07T12:21:58;98505.59;;;19.79;40.86
2681;BME280;1350;42.134;24.708;2023-03-07T12:24:31;98511.16;;;19.36;41.44
2681;BME280;1350;42.134;24.708;2023-03-07T12:27:04;98505.78;;;19.28;41.12
2681;BME280;1350;42.134;24.708;2023-03-07T12:29:37;98501.97;;;18.87;41.77
2681;BME280;1350;42.134;24.708;2023-03-07T12:32:10;98501.91;;;18.79;41.33
2681;BME280;1350;42.134;24.708;2023-03-07T12:34:42;98495.25;;;18.22;42.26
2681;BME280;1350;42.134;24.708;2023-03-07T12:37:14;98491.50;;;18.15;43.26
2681;BME280;1350;42.134;24.708;2023-03-07T12:39:47;98486.41;;;18.30;43.82
2681;BME280;1350;42.134;24.708;2023-03-07T12:42:24;98483.06;;;18.45;43.39
2681;BME280;1350;42.134;24.708;2023-03-07T12:44:57;98480.41;;;18.71;42.98
2681;BME280;1350;42.134;24.708;2023-03-07T12:47:29;98480.84;;;18.67;43.19
2681;BME280;1350;42.134;24.708;2023-03-07T12:50:01;98485.25;;;18.50;43.84
2681;BME280;1350;42.134;24.708;2023-03-07T12:52:37;98476.84;;;18.10;44.40
2681;BME280;1350;42.134;24.708;2023-03-07T12:55:13;98480.53;;;18.09;44.72
2681;BME280;1350;42.134;24.708;2023-03-07T12:57:44;98479.16;;;18.05;44.36
2681;BME280;1350;42.134;24.708;2023-03-07T13:00:18;98473.31;;;17.92;44.45
2681;BME280;1350;42.134;24.708;2023-03-07T13:02:56;98463.59;;;17.91;45.18
2681;BME280;1350;42.134;24.708;2023-03-07T13:05:24;98484.06;;;18.09;43.45
2681;BME280;1350;42.134;24.708;2023-03-07T13:07:52;98474.19;;;17.92;43.20
2681;BME280;1350;42.134;24.708;2023-03-07T13:10:21;98483.50;;;17.71;41.12
2681;BME280;1350;42.134;24.708;2023-03-07T13:12:50;98479.88;;;17.62;42.52
2681;BME280;1350;42.134;24.708;2023-03-07T13:15:59;98475.63;;;17.69;43.24
2681;BME280;1350;42.134;24.708;2023-03-07T13:18:30;98474.84;;;17.77;43.24
2681;BME280;1350;42.134;24.708;2023-03-07T13:21:09;98473.16;;;17.93;42.76
2681;BME280;1350;42.134;24.708;2023-03-07T13:23:36;98474.84;;;18.12;42.60
2681;BME280;1350;42.134;24.708;2023-03-07T13:26:12;98466.59;;;18.66;41.86
2681;BME280;1350;42.134;24.708;2023-03-07T13:28:49;98471.38;;;18.80;41.85
2681;BME280;1350;42.134;24.708;2023-03-07T13:37:49;98464.97;;;17.77;44.58
2681;BME280;1350;42.134;24.708;2023-03-07T13:46:48;98446.50;;;17.92;44.88